AirNav   Everest Fuels
 
 992 users online  

6WI8 Waukesha Memorial Hospital Heliport
Waukesha, Wisconsin, USA

GOING TO WAUKESHA?


FAA INFORMATION EFFECTIVE 10 SEPTEMBER 2020

Location

FAA Identifier: 6WI8
Lat/Long: 43-00-39.6420N 088-14-34.1340W
43-00.660700N 088-14.568900W
43.0110117,-88.2428150
(estimated)
Elevation: 900 ft. / 274 m (estimated)
Variation: 02W (1995)
From city: 2 miles N of WAUKESHA, WI
Time zone: UTC -5 (UTC -6 during Standard Time)
Zip code: 53188

Heliport Operations

Heliport use: Private use, MEDICAL USE.
Activation date: 03/1998
Control tower: no
ARTCC: CHICAGO CENTER
FSS: GREEN BAY FLIGHT SERVICE STATION
Attendance: UNATNDD
Wind indicator: lighted
Segmented circle: no
Lights: FOR PERIMETER LIGHTS CALL THE NURSING SUPERVISOR AT 262-928-1319.

Heliport Communications

WX AWOS-3 at UES (1.8 nm N): 118.875 (262-521-5226)
WX AWOS-3 at MWC (11 nm NE): PHONE 414-461-2954
WX AWOS-3PT at 57C (14 nm SW): 118.125 (262-642-1845)
WX ASOS at MKE (16 nm E): 126.4 (414-489-2168)
WX AWOS-3 at BUU (19 nm S): 125.275 (262-757-0907)

Nearby radio navigation aids

VOR radial/distance  VOR name  Freq  Var
BAEr162/6.6BADGER VOR/DME116.4002E
BJBr193/(25.2)WEST BEND VOR109.8001W

 
NDB name  Hdg/Dist  Freq  Var  ID
ROCK RIVER116/23.337101WRYV .-. -.-- ...-
LAKE LAWN041/24.340402WLVV .-.. ...- ...-
JUNEAU142/32.134401WUNU ..- -. ..-

Heliport Services

Runway Information

Helipad H1

Dimensions: 40 x 40 ft. / 12 x 12 m
Surface: mats, in good condition
Runway edge lights: PERI
Operational restrictions: ROOFTOP HELIPAD
Latitude: 43-00.660700N
Longitude: 088-14.568900W
Elevation: 900.0 ft.
Traffic pattern: leftleft

Heliport Ownership and Management from official FAA records

Ownership: Privately-owned
Owner: WAUKESHA MEMORIAL HOSPITAL
725 AMERICAN AVENUE
WAUKESHA, WI 53188
Phone 262-928-2000
Manager: JIM HILL
WAUKESHA MEML HOSPITAL, 725 AMERICAN AVENUE
WAUKESHA, WI 53188
Phone (262) 928-2376

Additional Remarks

FOR CD CTC CHICAGO ARTCC AT 630-906-8921.

Instrument Procedures

There are no published instrument procedures at 6WI8.

Some nearby airports with instrument procedures:

KUES - Waukesha County Airport (2 nm N)
KMWC - Lawrence J Timmerman Airport (11 nm NE)
57C - East Troy Municipal Airport (14 nm SW)
KMKE - General Mitchell International Airport (16 nm E)
KBUU - Burlington Municipal Airport (19 nm S)
 
Loc | Ops | Rwys | IFR | FBO | Links
Com | Nav | Svcs | Stats | Notes
Area around 6WI8 (Waukesha Memorial Hospital Heliport)
 
Road maps at: MapQuest Bing Google
 
Aerial photo
No photo
 
Sectional chart

 
Airport distance calculator
Flying to Waukesha Memorial Hospital Heliport? Find the distance to fly.

From to 6WI8

Sunrise and sunset
Times for 18-Sep-2020
 Local
(UTC-5)
 Zulu
(UTC)
Morning civil twilight06:1011:10
Sunrise06:3811:38
Sunset18:5623:56
Evening civil twilight19:2400:24

Current date and time
Zulu (UTC)  19-Sep-2020 02:36:51
Local (UTC-5)  18-Sep-2020 21:36:51
 
METAR
KUES 
5nm E 
190215Z AUTO 00000KT 10SM CLR 06/02 A3040 RMK AO2
KMWC 
12nm NE 
190215Z AUTO 00000KT 10SM CLR 06/02 A3040 RMK AO2
K57C 
14nm SW 
190215Z AUTO 00000KT 10SM CLR 06/06 A3038 RMK AO2 T00600057
KMKE 
15nm E 
190152Z 06007KT 10SM CLR 11/03 A3038 RMK AO2 SLP289 T01110033
KBUU 
20nm S 
190215Z AUTO 00000KT 10SM CLR 06/05 A3039 RMK AO2 T00560048 PWINO
TAF
KUES 
5nm E 
181120Z 1812/1912 03008KT P6SM BKN035 FM181400 05009KT P6SM BKN040 FM190100 06004KT P6SM FEW040 FM190400 VRB03KT P6SM SKC
KMKE 
15nm E 
182038Z 1821/1924 05010KT P6SM SCT040 FM190700 00000KT P6SM FEW250 FM191500 15004KT P6SM FEW030 FM192200 16008KT P6SM FEW120
NOTAMs
Click for the latest NOTAMs
NOTAMs are issued by the DoD/FAA and will open in a separate window not controlled by AirNav.

 

 
 

Would you like to see your business listed on this page?

 If your business provides an interesting product or service to pilots, flight crews, aircraft, or users of the Waukesha Memorial Hospital Heliport, you should consider listing it here.  To start the listing process, click on the button below
 
Add a business
 

Other Pages about Waukesha Memorial Hospital Heliport

Update a link
 
Copyright © AirNav, LLC. All rights reserved. Privacy Policy  Contact